sensor_id;sensor_type;location;lat;lon;timestamp;P1;durP1;ratioP1;P2;durP2;ratioP2
36385;SDS011;24125;47.482;8.770;2023-01-19T00:01:11;4.53;;;3.55;;
36385;SDS011;24125;47.482;8.770;2023-01-19T00:03:44;5.03;;;3.63;;
36385;SDS011;24125;47.482;8.770;2023-01-19T00:10:12;4.68;;;3.42;;
36385;SDS011;24125;47.482;8.770;2023-01-19T00:12:45;6.18;;;3.88;;
36385;SDS011;24125;47.482;8.770;2023-01-19T00:15:18;5.07;;;3.90;;
36385;SDS011;24125;47.482;8.770;2023-01-19T00:17:52;6.10;;;4.00;;
36385;SDS011;24125;47.482;8.770;2023-01-19T00:20:25;4.88;;;3.80;;
36385;SDS011;24125;47.482;8.770;2023-01-19T00:22:58;6.07;;;4.38;;
36385;SDS011;24125;47.482;8.770;2023-01-19T00:25:31;5.20;;;3.80;;
36385;SDS011;24125;47.482;8.770;2023-01-19T00:28:04;5.90;;;3.75;;
36385;SDS011;24125;47.482;8.770;2023-01-19T00:30:37;7.47;;;4.25;;
36385;SDS011;24125;47.482;8.770;2023-01-19T00:33:11;5.57;;;4.15;;
36385;SDS011;24125;47.482;8.770;2023-01-19T00:35:49;5.55;;;3.58;;
36385;SDS011;24125;47.482;8.770;2023-01-19T00:38:23;5.55;;;3.88;;
36385;SDS011;24125;47.482;8.770;2023-01-19T00:40:55;7.25;;;4.22;;
36385;SDS011;24125;47.482;8.770;2023-01-19T00:43:28;7.97;;;4.40;;
36385;SDS011;24125;47.482;8.770;2023-01-19T00:46:00;6.13;;;4.30;;
36385;SDS011;24125;47.482;8.770;2023-01-19T00:48:35;8.55;;;4.72;;
36385;SDS011;24125;47.482;8.770;2023-01-19T00:51:07;5.05;;;3.88;;
36385;SDS011;24125;47.482;8.770;2023-01-19T00:53:40;5.85;;;3.80;;
36385;SDS011;24125;47.482;8.770;2023-01-19T00:56:13;8.02;;;4.40;;
36385;SDS011;24125;47.482;8.770;2023-01-19T00:58:46;6.60;;;4.25;;
36385;SDS011;24125;47.482;8.770;2023-01-19T01:01:19;5.75;;;4.18;;
36385;SDS011;24125;47.482;8.770;2023-01-19T01:04:13;5.63;;;3.95;;
36385;SDS011;24125;47.482;8.770;2023-01-19T01:06:46;4.43;;;3.17;;
36385;SDS011;24125;47.482;8.770;2023-01-19T01:09:19;7.78;;;3.90;;
36385;SDS011;24125;47.482;8.770;2023-01-19T01:11:52;5.05;;;3.72;;
36385;SDS011;24125;47.482;8.770;2023-01-19T01:14:25;4.72;;;3.38;;
36385;SDS011;24125;47.482;8.770;2023-01-19T01:16:58;5.63;;;3.58;;
36385;SDS011;24125;47.482;8.770;2023-01-19T01:19:32;5.60;;;3.30;;
36385;SDS011;24125;47.482;8.770;2023-01-19T01:22:05;6.90;;;3.65;;
36385;SDS011;24125;47.482;8.770;2023-01-19T01:24:38;4.13;;;3.00;;
36385;SDS011;24125;47.482;8.770;2023-01-19T01:27:11;6.30;;;3.58;;
36385;SDS011;24125;47.482;8.770;2023-01-19T01:29:44;4.57;;;2.95;;
36385;SDS011;24125;47.482;8.770;2023-01-19T01:32:17;5.28;;;3.33;;
36385;SDS011;24125;47.482;8.770;2023-01-19T01:34:52;6.43;;;3.53;;
36385;SDS011;24125;47.482;8.770;2023-01-19T01:37:24;5.03;;;3.40;;
36385;SDS011;24125;47.482;8.770;2023-01-19T01:39:57;6.05;;;3.80;;
36385;SDS011;24125;47.482;8.770;2023-01-19T01:42:30;4.55;;;2.72;;
36385;SDS011;24125;47.482;8.770;2023-01-19T01:45:06;5.05;;;3.08;;
36385;SDS011;24125;47.482;8.770;2023-01-19T01:48:00;5.03;;;3.30;;
36385;SDS011;24125;47.482;8.770;2023-01-19T01:50:39;4.90;;;3.60;;
36385;SDS011;24125;47.482;8.770;2023-01-19T01:53:32;4.07;;;2.97;;
36385;SDS011;24125;47.482;8.770;2023-01-19T01:56:08;3.70;;;2.75;;
36385;SDS011;24125;47.482;8.770;2023-01-19T01:58:46;4.80;;;2.97;;
36385;SDS011;24125;47.482;8.770;2023-01-19T02:01:20;4.05;;;2.92;;
36385;SDS011;24125;47.482;8.770;2023-01-19T02:04:10;5.88;;;2.85;;
36385;SDS011;24125;47.482;8.770;2023-01-19T02:06:45;4.47;;;3.15;;
36385;SDS011;24125;47.482;8.770;2023-01-19T02:09:36;5.47;;;3.17;;
36385;SDS011;24125;47.482;8.770;2023-01-19T02:12:26;4.80;;;2.65;;
36385;SDS011;24125;47.482;8.770;2023-01-19T02:15:18;4.68;;;3.03;;
36385;SDS011;24125;47.482;8.770;2023-01-19T02:17:51;5.22;;;3.38;;
36385;SDS011;24125;47.482;8.770;2023-01-19T02:20:24;4.80;;;3.50;;
36385;SDS011;24125;47.482;8.770;2023-01-19T02:23:04;5.03;;;3.05;;
36385;SDS011;24125;47.482;8.770;2023-01-19T02:25:47;4.53;;;2.97;;
36385;SDS011;24125;47.482;8.770;2023-01-19T02:28:21;4.47;;;3.10;;
36385;SDS011;24125;47.482;8.770;2023-01-19T02:30:55;4.32;;;3.08;;
36385;SDS011;24125;47.482;8.770;2023-01-19T02:33:28;6.60;;;3.10;;
36385;SDS011;24125;47.482;8.770;2023-01-19T02:36:02;5.60;;;3.40;;
36385;SDS011;24125;47.482;8.770;2023-01-19T02:38:38;4.32;;;3.00;;
36385;SDS011;24125;47.482;8.770;2023-01-19T02:41:16;3.45;;;2.75;;
36385;SDS011;24125;47.482;8.770;2023-01-19T02:43:53;4.55;;;2.85;;
36385;SDS011;24125;47.482;8.770;2023-01-19T02:46:29;6.05;;;3.20;;
36385;SDS011;24125;47.482;8.770;2023-01-19T02:49:02;4.60;;;3.30;;
36385;SDS011;24125;47.482;8.770;2023-01-19T02:51:35;4.53;;;3.25;;
36385;SDS011;24125;47.482;8.770;2023-01-19T02:54:11;5.00;;;2.83;;
36385;SDS011;24125;47.482;8.770;2023-01-19T02:57:13;4.30;;;2.95;;
36385;SDS011;24125;47.482;8.770;2023-01-19T03:00:02;4.18;;;2.90;;
36385;SDS011;24125;47.482;8.770;2023-01-19T03:02:47;3.85;;;2.60;;
36385;SDS011;24125;47.482;8.770;2023-01-19T03:05:30;4.32;;;2.90;;
36385;SDS011;24125;47.482;8.770;2023-01-19T03:08:12;4.13;;;3.10;;
36385;SDS011;24125;47.482;8.770;2023-01-19T03:10:52;4.07;;;2.92;;
36385;SDS011;24125;47.482;8.770;2023-01-19T03:13:36;4.68;;;3.25;;
36385;SDS011;24125;47.482;8.770;2023-01-19T03:16:15;3.85;;;3.08;;
36385;SDS011;24125;47.482;8.770;2023-01-19T03:18:53;7.38;;;3.15;;
36385;SDS011;24125;47.482;8.770;2023-01-19T03:21:29;5.60;;;3.25;;
36385;SDS011;24125;47.482;8.770;2023-01-19T03:24:07;5.53;;;3.03;;
36385;SDS011;24125;47.482;8.770;2023-01-19T03:26:44;4.85;;;2.88;;
36385;SDS011;24125;47.482;8.770;2023-01-19T03:29:22;4.60;;;3.17;;
36385;SDS011;24125;47.482;8.770;2023-01-19T03:31:59;5.70;;;3.08;;
36385;SDS011;24125;47.482;8.770;2023-01-19T03:34:38;5.53;;;3.17;;
36385;SDS011;24125;47.482;8.770;2023-01-19T03:37:12;5.15;;;3.42;;
36385;SDS011;24125;47.482;8.770;2023-01-19T03:39:46;5.85;;;3.65;;
36385;SDS011;24125;47.482;8.770;2023-01-19T03:42:19;5.57;;;3.30;;
36385;SDS011;24125;47.482;8.770;2023-01-19T03:44:55;4.63;;;3.30;;
36385;SDS011;24125;47.482;8.770;2023-01-19T03:47:31;5.28;;;3.30;;
36385;SDS011;24125;47.482;8.770;2023-01-19T03:50:06;4.65;;;3.20;;
36385;SDS011;24125;47.482;8.770;2023-01-19T03:52:45;4.60;;;2.97;;
36385;SDS011;24125;47.482;8.770;2023-01-19T03:55:33;4.47;;;2.83;;
36385;SDS011;24125;47.482;8.770;2023-01-19T03:58:06;4.15;;;2.88;;
36385;SDS011;24125;47.482;8.770;2023-01-19T04:00:40;5.47;;;3.20;;
36385;SDS011;24125;47.482;8.770;2023-01-19T04:03:14;4.78;;;3.05;;
36385;SDS011;24125;47.482;8.770;2023-01-19T04:05:49;7.35;;;3.58;;
36385;SDS011;24125;47.482;8.770;2023-01-19T04:08:22;6.18;;;3.08;;
36385;SDS011;24125;47.482;8.770;2023-01-19T04:10:56;5.53;;;3.63;;
36385;SDS011;24125;47.482;8.770;2023-01-19T04:13:29;5.40;;;3.17;;
36385;SDS011;24125;47.482;8.770;2023-01-19T04:16:04;5.35;;;3.78;;
36385;SDS011;24125;47.482;8.770;2023-01-19T04:18:37;5.35;;;3.50;;
36385;SDS011;24125;47.482;8.770;2023-01-19T04:21:12;5.97;;;3.47;;
36385;SDS011;24125;47.482;8.770;2023-01-19T04:23:45;5.35;;;3.58;;
36385;SDS011;24125;47.482;8.770;2023-01-19T04:26:20;7.68;;;3.53;;
36385;SDS011;24125;47.482;8.770;2023-01-19T04:28:53;5.88;;;3.65;;
36385;SDS011;24125;47.482;8.770;2023-01-19T04:31:27;5.10;;;3.33;;
36385;SDS011;24125;47.482;8.770;2023-01-19T04:34:00;6.32;;;3.72;;
36385;SDS011;24125;47.482;8.770;2023-01-19T04:36:33;9.02;;;3.65;;
36385;SDS011;24125;47.482;8.770;2023-01-19T04:39:06;7.38;;;3.97;;
36385;SDS011;24125;47.482;8.770;2023-01-19T04:41:40;6.78;;;3.70;;
36385;SDS011;24125;47.482;8.770;2023-01-19T04:44:13;5.32;;;3.63;;
36385;SDS011;24125;47.482;8.770;2023-01-19T04:46:48;7.10;;;3.95;;
36385;SDS011;24125;47.482;8.770;2023-01-19T04:49:21;6.47;;;3.90;;
36385;SDS011;24125;47.482;8.770;2023-01-19T04:51:54;5.35;;;3.47;;
36385;SDS011;24125;47.482;8.770;2023-01-19T04:54:27;6.43;;;3.67;;
36385;SDS011;24125;47.482;8.770;2023-01-19T04:57:01;5.22;;;3.78;;
36385;SDS011;24125;47.482;8.770;2023-01-19T04:59:33;7.28;;;3.63;;
36385;SDS011;24125;47.482;8.770;2023-01-19T05:02:08;6.25;;;4.00;;
36385;SDS011;24125;47.482;8.770;2023-01-19T05:04:41;5.55;;;3.80;;
36385;SDS011;24125;47.482;8.770;2023-01-19T05:07:14;5.60;;;3.83;;
36385;SDS011;24125;47.482;8.770;2023-01-19T05:09:47;6.85;;;3.70;;
36385;SDS011;24125;47.482;8.770;2023-01-19T05:12:20;5.63;;;3.50;;
36385;SDS011;24125;47.482;8.770;2023-01-19T05:14:53;5.30;;;3.47;;
36385;SDS011;24125;47.482;8.770;2023-01-19T05:17:27;5.85;;;3.13;;
36385;SDS011;24125;47.482;8.770;2023-01-19T05:20:00;6.15;;;3.53;;
36385;SDS011;24125;47.482;8.770;2023-01-19T05:22:34;5.97;;;3.58;;
36385;SDS011;24125;47.482;8.770;2023-01-19T05:25:07;5.40;;;3.65;;
36385;SDS011;24125;47.482;8.770;2023-01-19T05:27:40;6.70;;;3.80;;
36385;SDS011;24125;47.482;8.770;2023-01-19T05:30:13;7.25;;;3.80;;
36385;SDS011;24125;47.482;8.770;2023-01-19T05:32:48;6.57;;;3.35;;
36385;SDS011;24125;47.482;8.770;2023-01-19T05:35:21;5.05;;;2.95;;
36385;SDS011;24125;47.482;8.770;2023-01-19T05:38:06;6.85;;;3.38;;
36385;SDS011;24125;47.482;8.770;2023-01-19T05:40:39;5.95;;;3.55;;
36385;SDS011;24125;47.482;8.770;2023-01-19T05:43:12;5.85;;;3.60;;
36385;SDS011;24125;47.482;8.770;2023-01-19T05:45:45;6.13;;;3.55;;
36385;SDS011;24125;47.482;8.770;2023-01-19T05:48:19;5.22;;;3.60;;
36385;SDS011;24125;47.482;8.770;2023-01-19T05:50:55;6.20;;;3.17;;
36385;SDS011;24125;47.482;8.770;2023-01-19T05:53:29;5.90;;;3.40;;
36385;SDS011;24125;47.482;8.770;2023-01-19T05:56:03;5.60;;;3.25;;
36385;SDS011;24125;47.482;8.770;2023-01-19T05:58:38;6.90;;;3.95;;
36385;SDS011;24125;47.482;8.770;2023-01-19T06:01:11;5.35;;;3.47;;
36385;SDS011;24125;47.482;8.770;2023-01-19T06:03:45;6.25;;;3.65;;
36385;SDS011;24125;47.482;8.770;2023-01-19T06:06:19;6.05;;;3.80;;
36385;SDS011;24125;47.482;8.770;2023-01-19T06:08:51;7.32;;;3.65;;
36385;SDS011;24125;47.482;8.770;2023-01-19T06:11:25;7.28;;;4.13;;
36385;SDS011;24125;47.482;8.770;2023-01-19T06:13:58;6.80;;;3.88;;
36385;SDS011;24125;47.482;8.770;2023-01-19T06:16:32;6.50;;;4.25;;
36385;SDS011;24125;47.482;8.770;2023-01-19T06:19:06;8.35;;;4.43;;
36385;SDS011;24125;47.482;8.770;2023-01-19T06:21:39;7.22;;;4.13;;
36385;SDS011;24125;47.482;8.770;2023-01-19T06:24:12;6.13;;;3.88;;
36385;SDS011;24125;47.482;8.770;2023-01-19T06:26:45;6.80;;;4.18;;
36385;SDS011;24125;47.482;8.770;2023-01-19T06:29:18;6.90;;;4.38;;
36385;SDS011;24125;47.482;8.770;2023-01-19T06:31:52;6.72;;;3.90;;
36385;SDS011;24125;47.482;8.770;2023-01-19T06:34:27;7.97;;;4.00;;
36385;SDS011;24125;47.482;8.770;2023-01-19T06:37:00;7.20;;;3.80;;
36385;SDS011;24125;47.482;8.770;2023-01-19T06:39:34;7.40;;;4.20;;
36385;SDS011;24125;47.482;8.770;2023-01-19T06:42:08;6.70;;;4.18;;
36385;SDS011;24125;47.482;8.770;2023-01-19T06:44:41;7.88;;;4.47;;
36385;SDS011;24125;47.482;8.770;2023-01-19T06:47:17;6.38;;;4.00;;
36385;SDS011;24125;47.482;8.770;2023-01-19T06:49:52;6.28;;;4.20;;
36385;SDS011;24125;47.482;8.770;2023-01-19T06:52:24;5.93;;;3.60;;
36385;SDS011;24125;47.482;8.770;2023-01-19T06:54:58;6.18;;;4.18;;
36385;SDS011;24125;47.482;8.770;2023-01-19T06:57:31;8.05;;;3.95;;
36385;SDS011;24125;47.482;8.770;2023-01-19T07:00:05;7.47;;;4.32;;
36385;SDS011;24125;47.482;8.770;2023-01-19T07:02:39;7.97;;;3.72;;
36385;SDS011;24125;47.482;8.770;2023-01-19T07:05:15;6.20;;;3.88;;
36385;SDS011;24125;47.482;8.770;2023-01-19T07:07:51;6.10;;;3.92;;
36385;SDS011;24125;47.482;8.770;2023-01-19T07:10:25;7.15;;;4.25;;
36385;SDS011;24125;47.482;8.770;2023-01-19T07:13:18;8.48;;;4.05;;
36385;SDS011;24125;47.482;8.770;2023-01-19T07:15:52;6.97;;;4.20;;
36385;SDS011;24125;47.482;8.770;2023-01-19T07:18:25;7.13;;;3.72;;
36385;SDS011;24125;47.482;8.770;2023-01-19T07:20:59;5.95;;;3.83;;
36385;SDS011;24125;47.482;8.770;2023-01-19T07:23:32;6.53;;;4.15;;
36385;SDS011;24125;47.482;8.770;2023-01-19T07:26:05;5.40;;;3.35;;
36385;SDS011;24125;47.482;8.770;2023-01-19T07:28:38;6.95;;;4.18;;
36385;SDS011;24125;47.482;8.770;2023-01-19T07:31:12;6.60;;;3.83;;
36385;SDS011;24125;47.482;8.770;2023-01-19T07:33:45;7.18;;;4.38;;
36385;SDS011;24125;47.482;8.770;2023-01-19T07:36:20;7.13;;;3.47;;
36385;SDS011;24125;47.482;8.770;2023-01-19T07:38:53;7.60;;;3.97;;
36385;SDS011;24125;47.482;8.770;2023-01-19T07:41:26;7.22;;;4.18;;
36385;SDS011;24125;47.482;8.770;2023-01-19T07:43:58;6.10;;;3.45;;
36385;SDS011;24125;47.482;8.770;2023-01-19T07:46:31;7.88;;;4.30;;
36385;SDS011;24125;47.482;8.770;2023-01-19T07:49:04;6.72;;;4.20;;
36385;SDS011;24125;47.482;8.770;2023-01-19T07:51:39;6.28;;;3.90;;
36385;SDS011;24125;47.482;8.770;2023-01-19T07:54:12;7.22;;;4.07;;
36385;SDS011;24125;47.482;8.770;2023-01-19T07:56:45;7.88;;;4.43;;
36385;SDS011;24125;47.482;8.770;2023-01-19T07:59:18;5.65;;;3.90;;
36385;SDS011;24125;47.482;8.770;2023-01-19T08:01:50;6.35;;;3.85;;
36385;SDS011;24125;47.482;8.770;2023-01-19T08:04:24;5.47;;;3.88;;
36385;SDS011;24125;47.482;8.770;2023-01-19T08:06:59;6.20;;;3.97;;
36385;SDS011;24125;47.482;8.770;2023-01-19T08:09:32;5.93;;;3.50;;
36385;SDS011;24125;47.482;8.770;2023-01-19T08:12:05;6.05;;;3.80;;
36385;SDS011;24125;47.482;8.770;2023-01-19T08:14:38;6.13;;;3.47;;
36385;SDS011;24125;47.482;8.770;2023-01-19T08:17:11;6.35;;;4.32;;
36385;SDS011;24125;47.482;8.770;2023-01-19T08:19:45;5.60;;;3.83;;
36385;SDS011;24125;47.482;8.770;2023-01-19T08:22:19;5.63;;;3.42;;
36385;SDS011;24125;47.482;8.770;2023-01-19T08:24:52;6.00;;;3.72;;
36385;SDS011;24125;47.482;8.770;2023-01-19T08:27:25;6.20;;;3.75;;
36385;SDS011;24125;47.482;8.770;2023-01-19T08:29:58;6.00;;;3.63;;
36385;SDS011;24125;47.482;8.770;2023-01-19T08:32:31;6.22;;;4.00;;
36385;SDS011;24125;47.482;8.770;2023-01-19T08:35:04;5.60;;;3.63;;
36385;SDS011;24125;47.482;8.770;2023-01-19T08:37:39;5.38;;;3.47;;
36385;SDS011;24125;47.482;8.770;2023-01-19T08:40:12;5.18;;;3.70;;
36385;SDS011;24125;47.482;8.770;2023-01-19T08:42:45;7.63;;;3.97;;
36385;SDS011;24125;47.482;8.770;2023-01-19T08:45:18;7.00;;;4.13;;
36385;SDS011;24125;47.482;8.770;2023-01-19T08:47:51;8.68;;;3.90;;
36385;SDS011;24125;47.482;8.770;2023-01-19T08:50:26;5.95;;;4.10;;
36385;SDS011;24125;47.482;8.770;2023-01-19T08:53:02;7.45;;;4.68;;
36385;SDS011;24125;47.482;8.770;2023-01-19T08:55:36;7.13;;;4.68;;
36385;SDS011;24125;47.482;8.770;2023-01-19T08:58:10;6.93;;;4.00;;
36385;SDS011;24125;47.482;8.770;2023-01-19T09:00:43;6.38;;;3.90;;
36385;SDS011;24125;47.482;8.770;2023-01-19T09:03:16;6.50;;;3.97;;
36385;SDS011;24125;47.482;8.770;2023-01-19T09:05:49;5.88;;;3.65;;
36385;SDS011;24125;47.482;8.770;2023-01-19T09:08:23;6.30;;;3.83;;
36385;SDS011;24125;47.482;8.770;2023-01-19T09:10:56;7.68;;;3.83;;
36385;SDS011;24125;47.482;8.770;2023-01-19T09:13:29;6.88;;;3.92;;
36385;SDS011;24125;47.482;8.770;2023-01-19T09:16:02;6.18;;;3.65;;
36385;SDS011;24125;47.482;8.770;2023-01-19T09:18:37;6.05;;;3.70;;
36385;SDS011;24125;47.482;8.770;2023-01-19T09:21:10;5.57;;;3.63;;
36385;SDS011;24125;47.482;8.770;2023-01-19T09:23:45;4.78;;;3.20;;
36385;SDS011;24125;47.482;8.770;2023-01-19T09:26:19;5.65;;;3.55;;
36385;SDS011;24125;47.482;8.770;2023-01-19T09:28:53;5.13;;;3.22;;
36385;SDS011;24125;47.482;8.770;2023-01-19T09:31:26;5.47;;;3.03;;
36385;SDS011;24125;47.482;8.770;2023-01-19T09:34:00;4.45;;;2.78;;
36385;SDS011;24125;47.482;8.770;2023-01-19T09:36:33;4.45;;;2.92;;
36385;SDS011;24125;47.482;8.770;2023-01-19T09:39:08;4.75;;;2.72;;
36385;SDS011;24125;47.482;8.770;2023-01-19T09:41:43;4.43;;;2.80;;
36385;SDS011;24125;47.482;8.770;2023-01-19T09:44:23;3.95;;;2.70;;
36385;SDS011;24125;47.482;8.770;2023-01-19T09:47:00;4.70;;;3.03;;
36385;SDS011;24125;47.482;8.770;2023-01-19T09:49:38;5.50;;;3.17;;
36385;SDS011;24125;47.482;8.770;2023-01-19T09:52:14;4.47;;;3.13;;
36385;SDS011;24125;47.482;8.770;2023-01-19T09:54:50;5.13;;;3.00;;
36385;SDS011;24125;47.482;8.770;2023-01-19T09:57:26;5.78;;;2.90;;
36385;SDS011;24125;47.482;8.770;2023-01-19T10:00:00;4.75;;;3.20;;
36385;SDS011;24125;47.482;8.770;2023-01-19T10:02:35;4.78;;;3.25;;
36385;SDS011;24125;47.482;8.770;2023-01-19T10:05:16;4.88;;;3.33;;
36385;SDS011;24125;47.482;8.770;2023-01-19T10:07:59;4.50;;;3.30;;
36385;SDS011;24125;47.482;8.770;2023-01-19T10:10:44;3.80;;;2.83;;
36385;SDS011;24125;47.482;8.770;2023-01-19T10:13:23;5.18;;;3.03;;
36385;SDS011;24125;47.482;8.770;2023-01-19T10:16:12;4.38;;;2.55;;
36385;SDS011;24125;47.482;8.770;2023-01-19T10:18:54;3.83;;;2.72;;
36385;SDS011;24125;47.482;8.770;2023-01-19T10:21:32;3.75;;;2.47;;
36385;SDS011;24125;47.482;8.770;2023-01-19T10:24:12;5.38;;;2.63;;
36385;SDS011;24125;47.482;8.770;2023-01-19T10:26:51;3.83;;;2.80;;
36385;SDS011;24125;47.482;8.770;2023-01-19T10:29:27;3.13;;;2.42;;
36385;SDS011;24125;47.482;8.770;2023-01-19T10:32:05;3.95;;;2.67;;
36385;SDS011;24125;47.482;8.770;2023-01-19T10:34:41;3.45;;;2.55;;
36385;SDS011;24125;47.482;8.770;2023-01-19T10:37:16;3.88;;;3.08;;
36385;SDS011;24125;47.482;8.770;2023-01-19T10:40:04;3.67;;;2.78;;
36385;SDS011;24125;47.482;8.770;2023-01-19T10:42:52;5.03;;;2.63;;
36385;SDS011;24125;47.482;8.770;2023-01-19T10:45:29;3.10;;;2.35;;
36385;SDS011;24125;47.482;8.770;2023-01-19T10:48:03;3.00;;;2.40;;
36385;SDS011;24125;47.482;8.770;2023-01-19T10:50:38;3.40;;;2.50;;
36385;SDS011;24125;47.482;8.770;2023-01-19T10:53:16;3.65;;;2.50;;
36385;SDS011;24125;47.482;8.770;2023-01-19T10:56:07;3.55;;;2.25;;
36385;SDS011;24125;47.482;8.770;2023-01-19T10:58:46;4.15;;;2.85;;
36385;SDS011;24125;47.482;8.770;2023-01-19T11:01:19;2.70;;;2.15;;
36385;SDS011;24125;47.482;8.770;2023-01-19T11:03:54;4.72;;;2.58;;
36385;SDS011;24125;47.482;8.770;2023-01-19T11:06:35;3.47;;;2.70;;
36385;SDS011;24125;47.482;8.770;2023-01-19T11:09:10;3.30;;;2.55;;
36385;SDS011;24125;47.482;8.770;2023-01-19T11:11:48;4.43;;;2.88;;
36385;SDS011;24125;47.482;8.770;2023-01-19T11:14:24;3.25;;;2.25;;
36385;SDS011;24125;47.482;8.770;2023-01-19T11:17:01;3.55;;;2.40;;
36385;SDS011;24125;47.482;8.770;2023-01-19T11:19:34;4.40;;;2.95;;
36385;SDS011;24125;47.482;8.770;2023-01-19T11:22:08;3.83;;;2.72;;
36385;SDS011;24125;47.482;8.770;2023-01-19T11:24:51;3.22;;;2.30;;
36385;SDS011;24125;47.482;8.770;2023-01-19T11:27:30;5.28;;;2.63;;
36385;SDS011;24125;47.482;8.770;2023-01-19T11:30:13;3.60;;;2.60;;
36385;SDS011;24125;47.482;8.770;2023-01-19T11:32:49;3.20;;;2.45;;
36385;SDS011;24125;47.482;8.770;2023-01-19T11:35:30;4.38;;;2.83;;
36385;SDS011;24125;47.482;8.770;2023-01-19T11:38:09;4.00;;;2.60;;
36385;SDS011;24125;47.482;8.770;2023-01-19T11:40:51;3.30;;;2.35;;
36385;SDS011;24125;47.482;8.770;2023-01-19T11:43:27;3.28;;;2.60;;
36385;SDS011;24125;47.482;8.770;2023-01-19T11:46:20;2.38;;;1.83;;
36385;SDS011;24125;47.482;8.770;2023-01-19T11:48:55;3.47;;;2.22;;
36385;SDS011;24125;47.482;8.770;2023-01-19T11:51:34;3.28;;;2.35;;
36385;SDS011;24125;47.482;8.770;2023-01-19T11:54:14;3.03;;;2.40;;
36385;SDS011;24125;47.482;8.770;2023-01-19T11:56:54;5.28;;;2.78;;
36385;SDS011;24125;47.482;8.770;2023-01-19T11:59:30;2.90;;;2.22;;
36385;SDS011;24125;47.482;8.770;2023-01-19T12:02:09;3.33;;;2.33;;
36385;SDS011;24125;47.482;8.770;2023-01-19T12:04:52;3.00;;;2.20;;
36385;SDS011;24125;47.482;8.770;2023-01-19T12:07:31;2.53;;;2.05;;
36385;SDS011;24125;47.482;8.770;2023-01-19T12:10:22;3.45;;;2.80;;
36385;SDS011;24125;47.482;8.770;2023-01-19T12:12:57;2.92;;;2.28;;
36385;SDS011;24125;47.482;8.770;2023-01-19T12:15:31;3.47;;;2.85;;
36385;SDS011;24125;47.482;8.770;2023-01-19T12:18:11;2.53;;;2.13;;
36385;SDS011;24125;47.482;8.770;2023-01-19T12:20:49;3.72;;;2.55;;
36385;SDS011;24125;47.482;8.770;2023-01-19T12:23:27;4.45;;;2.92;;
36385;SDS011;24125;47.482;8.770;2023-01-19T12:26:16;2.55;;;2.35;;
36385;SDS011;24125;47.482;8.770;2023-01-19T12:28:59;3.22;;;2.38;;
36385;SDS011;24125;47.482;8.770;2023-01-19T12:31:38;2.85;;;2.53;;
36385;SDS011;24125;47.482;8.770;2023-01-19T12:34:28;4.20;;;2.50;;
36385;SDS011;24125;47.482;8.770;2023-01-19T12:40:20;3.60;;;2.40;;
36385;SDS011;24125;47.482;8.770;2023-01-19T12:42:58;2.83;;;2.28;;
36385;SDS011;24125;47.482;8.770;2023-01-19T12:45:33;4.50;;;2.83;;
36385;SDS011;24125;47.482;8.770;2023-01-19T12:48:09;4.03;;;2.33;;
36385;SDS011;24125;47.482;8.770;2023-01-19T12:50:57;2.40;;;2.10;;
36385;SDS011;24125;47.482;8.770;2023-01-19T12:53:30;3.30;;;2.40;;
36385;SDS011;24125;47.482;8.770;2023-01-19T12:56:03;2.83;;;2.15;;
36385;SDS011;24125;47.482;8.770;2023-01-19T12:58:40;3.03;;;2.38;;
36385;SDS011;24125;47.482;8.770;2023-01-19T13:01:20;3.75;;;2.47;;
36385;SDS011;24125;47.482;8.770;2023-01-19T13:04:01;4.57;;;2.40;;
36385;SDS011;24125;47.482;8.770;2023-01-19T13:09:53;2.80;;;2.15;;
36385;SDS011;24125;47.482;8.770;2023-01-19T13:12:27;2.40;;;1.90;;
36385;SDS011;24125;47.482;8.770;2023-01-19T13:18:05;1.70;;;1.42;;
36385;SDS011;24125;47.482;8.770;2023-01-19T13:20:42;2.10;;;1.58;;
36385;SDS011;24125;47.482;8.770;2023-01-19T13:23:20;2.65;;;1.58;;
36385;SDS011;24125;47.482;8.770;2023-01-19T13:26:00;2.58;;;1.55;;
36385;SDS011;24125;47.482;8.770;2023-01-19T13:28:38;2.15;;;1.52;;
36385;SDS011;24125;47.482;8.770;2023-01-19T13:31:13;2.00;;;1.70;;
36385;SDS011;24125;47.482;8.770;2023-01-19T13:33:48;2.17;;;1.70;;
36385;SDS011;24125;47.482;8.770;2023-01-19T13:36:25;2.10;;;1.52;;
36385;SDS011;24125;47.482;8.770;2023-01-19T13:39:02;2.28;;;1.60;;
36385;SDS011;24125;47.482;8.770;2023-01-19T13:41:39;1.80;;;1.55;;
36385;SDS011;24125;47.482;8.770;2023-01-19T13:44:14;1.42;;;1.20;;
36385;SDS011;24125;47.482;8.770;2023-01-19T13:46:54;1.75;;;1.45;;
36385;SDS011;24125;47.482;8.770;2023-01-19T13:49:30;1.63;;;1.40;;
36385;SDS011;24125;47.482;8.770;2023-01-19T13:52:10;2.78;;;1.80;;
36385;SDS011;24125;47.482;8.770;2023-01-19T13:54:48;3.55;;;1.67;;
36385;SDS011;24125;47.482;8.770;2023-01-19T13:57:25;2.58;;;1.63;;
36385;SDS011;24125;47.482;8.770;2023-01-19T14:00:00;2.40;;;1.50;;
36385;SDS011;24125;47.482;8.770;2023-01-19T14:02:36;1.95;;;1.42;;
36385;SDS011;24125;47.482;8.770;2023-01-19T14:05:11;2.13;;;1.42;;
36385;SDS011;24125;47.482;8.770;2023-01-19T14:07:45;1.27;;;1.13;;
36385;SDS011;24125;47.482;8.770;2023-01-19T14:10:18;2.28;;;1.40;;
36385;SDS011;24125;47.482;8.770;2023-01-19T14:12:58;2.35;;;1.30;;
36385;SDS011;24125;47.482;8.770;2023-01-19T14:15:32;2.13;;;1.48;;
36385;SDS011;24125;47.482;8.770;2023-01-19T14:18:06;1.48;;;1.38;;
36385;SDS011;24125;47.482;8.770;2023-01-19T14:20:50;2.13;;;1.40;;
36385;SDS011;24125;47.482;8.770;2023-01-19T14:26:37;1.85;;;1.40;;
36385;SDS011;24125;47.482;8.770;2023-01-19T14:29:25;2.20;;;1.55;;
36385;SDS011;24125;47.482;8.770;2023-01-19T14:32:03;1.90;;;1.63;;
36385;SDS011;24125;47.482;8.770;2023-01-19T14:34:39;2.90;;;1.77;;
36385;SDS011;24125;47.482;8.770;2023-01-19T14:37:15;2.58;;;1.80;;
36385;SDS011;24125;47.482;8.770;2023-01-19T14:39:51;1.98;;;1.35;;
36385;SDS011;24125;47.482;8.770;2023-01-19T14:42:31;2.15;;;1.65;;
36385;SDS011;24125;47.482;8.770;2023-01-19T14:45:12;2.70;;;1.80;;
36385;SDS011;24125;47.482;8.770;2023-01-19T14:47:52;1.92;;;1.45;;
36385;SDS011;24125;47.482;8.770;2023-01-19T14:50:27;2.22;;;1.63;;
36385;SDS011;24125;47.482;8.770;2023-01-19T14:53:04;2.42;;;1.67;;
36385;SDS011;24125;47.482;8.770;2023-01-19T14:55:42;1.52;;;1.42;;
36385;SDS011;24125;47.482;8.770;2023-01-19T14:58:18;2.08;;;1.88;;
36385;SDS011;24125;47.482;8.770;2023-01-19T15:00:54;2.28;;;1.73;;
36385;SDS011;24125;47.482;8.770;2023-01-19T15:03:27;4.40;;;1.60;;
36385;SDS011;24125;47.482;8.770;2023-01-19T15:06:15;2.08;;;1.50;;
36385;SDS011;24125;47.482;8.770;2023-01-19T15:08:51;2.42;;;1.67;;
36385;SDS011;24125;47.482;8.770;2023-01-19T15:11:25;2.50;;;1.40;;
36385;SDS011;24125;47.482;8.770;2023-01-19T15:14:01;1.95;;;1.40;;
36385;SDS011;24125;47.482;8.770;2023-01-19T15:16:35;2.78;;;1.50;;
36385;SDS011;24125;47.482;8.770;2023-01-19T15:19:10;1.75;;;1.20;;
36385;SDS011;24125;47.482;8.770;2023-01-19T15:21:44;2.70;;;1.17;;
36385;SDS011;24125;47.482;8.770;2023-01-19T15:24:17;2.05;;;1.48;;
36385;SDS011;24125;47.482;8.770;2023-01-19T15:26:50;1.77;;;1.15;;
36385;SDS011;24125;47.482;8.770;2023-01-19T15:29:23;1.90;;;1.10;;
36385;SDS011;24125;47.482;8.770;2023-01-19T15:32:00;1.50;;;1.20;;
36385;SDS011;24125;47.482;8.770;2023-01-19T15:34:34;2.10;;;1.30;;
36385;SDS011;24125;47.482;8.770;2023-01-19T15:37:07;2.45;;;1.40;;
36385;SDS011;24125;47.482;8.770;2023-01-19T15:39:40;1.90;;;1.30;;
36385;SDS011;24125;47.482;8.770;2023-01-19T15:42:13;2.42;;;1.50;;
36385;SDS011;24125;47.482;8.770;2023-01-19T15:44:46;2.53;;;1.30;;
36385;SDS011;24125;47.482;8.770;2023-01-19T15:47:20;2.03;;;1.52;;
36385;SDS011;24125;47.482;8.770;2023-01-19T15:49:53;2.00;;;1.45;;
36385;SDS011;24125;47.482;8.770;2023-01-19T15:52:26;2.33;;;1.38;;
36385;SDS011;24125;47.482;8.770;2023-01-19T15:54:59;2.70;;;1.58;;
36385;SDS011;24125;47.482;8.770;2023-01-19T15:57:32;2.17;;;1.50;;